Time;durP1;ratioP1;P1;durP2;ratioP2;P2;SDS_P1;SDS_P2;PMS_P1;PMS_P2;Temp;Humidity;BMP_temperature;BMP_pressure;BME280_temperature;BME280_humidity;BME280_pressure;Samples;Min_cycle;Max_cycle;Signal;HPM_P1;HPM_P2
2021/08/01 00:01:25;;;;;;;7.00;3.00;;;;;;;14.04;76.83;100808.63;4902703;29;20024;-84
2021/08/01 00:03:51;;;;;;;8.88;3.13;;;;;;;13.98;76.91;100804.03;4884942;29;20036;-84
2021/08/01 00:06:17;;;;;;;5.63;2.92;;;;;;;14.10;76.71;100815.13;4881647;29;20024;-85
2021/08/01 00:08:42;;;;;;;7.70;3.75;;;;;;;14.11;76.70;100819.50;4888306;29;20075;-85
2021/08/01 00:11:08;;;;;;;10.18;3.10;;;;;;;14.04;77.23;100811.34;4881517;29;20024;-85
2021/08/01 00:13:33;;;;;;;8.25;3.28;;;;;;;14.06;77.41;100815.50;4890357;29;20027;-85
2021/08/01 00:16:00;;;;;;;10.10;3.53;;;;;;;14.14;77.16;100813.69;4888537;29;20401;-84
2021/08/01 00:18:26;;;;;;;8.38;3.58;;;;;;;13.88;77.55;100798.94;4880196;29;20025;-85
2021/08/01 00:20:51;;;;;;;10.20;3.67;;;;;;;13.75;77.53;100793.44;4882453;29;20096;-85
2021/08/01 00:23:17;;;;;;;8.20;3.38;;;;;;;13.73;77.88;100798.19;4897361;29;20033;-84
2021/08/01 00:25:42;;;;;;;6.50;3.30;;;;;;;13.62;78.10;100803.09;4908127;29;20038;-85
2021/08/01 00:28:08;;;;;;;10.65;3.70;;;;;;;13.60;78.40;100805.19;4893776;29;20037;-85
2021/08/01 00:30:33;;;;;;;11.50;4.00;;;;;;;13.32;78.33;100764.63;4878317;29;20037;-84
2021/08/01 00:32:59;;;;;;;10.93;3.90;;;;;;;13.37;78.48;100796.44;4901042;29;20048;-84
2021/08/01 00:35:25;;;;;;;9.00;4.63;;;;;;;13.36;78.35;100805.56;4901096;29;20024;-85
2021/08/01 00:37:51;;;;;;;7.28;3.42;;;;;;;13.19;78.45;100786.88;4899962;29;20040;-85
2021/08/01 00:40:19;;;;;;;6.75;3.45;;;;;;;13.19;78.08;100800.38;4896921;29;20100;-85
2021/08/01 00:42:45;;;;;;;7.82;4.10;;;;;;;13.17;77.74;100802.44;4874312;29;20029;-85
2021/08/01 00:45:11;;;;;;;9.68;3.72;;;;;;;13.23;77.64;100808.09;4897881;29;20373;-85
2021/08/01 00:47:36;;;;;;;11.80;3.55;;;;;;;13.18;77.92;100800.59;4894143;29;20776;-84
2021/08/01 00:50:05;;;;;;;12.65;3.95;;;;;;;13.13;77.70;100809.25;4868013;29;20032;-83
2021/08/01 00:52:31;;;;;;;8.27;3.45;;;;;;;13.06;77.20;100802.94;4870916;29;20032;-85
2021/08/01 00:54:57;;;;;;;7.32;3.67;;;;;;;12.92;76.34;100779.53;4902763;29;20667;-85
2021/08/01 00:57:23;;;;;;;9.88;4.88;;;;;;;12.91;75.76;100769.75;4903144;29;20084;-83
2021/08/01 00:59:48;;;;;;;12.55;3.97;;;;;;;13.09;75.99;100801.72;4885604;29;20359;-85
2021/08/01 01:02:19;;;;;;;9.70;4.13;;;;;;;12.90;75.91;100778.91;4892852;29;20477;-84
2021/08/01 01:04:58;;;;;;;11.60;4.20;;;;;;;13.01;75.75;100807.25;4879031;29;20040;-83
2021/08/01 01:07:45;;;;;;;9.65;4.28;;;;;;;12.91;75.68;100792.22;4870772;29;20039;-83
2021/08/01 01:10:22;;;;;;;11.75;4.35;;;;;;;12.98;76.13;100806.59;4893085;29;20036;-85
2021/08/01 01:12:52;;;;;;;10.30;4.03;;;;;;;12.83;76.39;100795.00;4881814;29;20410;-85
2021/08/01 01:15:26;;;;;;;6.43;4.05;;;;;;;12.81;77.22;100799.78;4894574;29;20100;-85
2021/08/01 01:17:54;;;;;;;7.47;3.75;;;;;;;12.71;77.45;100791.97;4881816;29;20032;-85
2021/08/01 01:20:32;;;;;;;13.55;4.40;;;;;;;12.71;76.87;100799.22;4896740;29;20040;-85
2021/08/01 01:23:08;;;;;;;9.75;4.00;;;;;;;12.60;77.37;100788.94;4921442;29;20037;-85
2021/08/01 01:25:43;;;;;;;14.15;4.03;;;;;;;12.54;77.79;100785.09;4903975;29;20033;-85
2021/08/01 01:28:17;;;;;;;9.30;3.63;;;;;;;12.60;78.01;100795.16;4886715;29;20055;-85
2021/08/01 01:30:52;;;;;;;9.20;3.63;;;;;;;12.60;77.37;100800.53;4893749;29;20033;-85
2021/08/01 01:33:18;;;;;;;7.40;3.72;;;;;;;12.62;76.75;100801.19;4900872;29;20038;-85
2021/08/01 01:35:51;;;;;;;9.90;4.15;;;;;;;12.67;76.54;100796.03;4892910;29;20111;-85
2021/08/01 01:38:17;;;;;;;8.55;3.60;;;;;;;12.71;76.44;100799.22;4869724;29;20051;-84
2021/08/01 01:40:43;;;;;;;9.35;3.58;;;;;;;12.57;75.37;100781.19;4896014;29;20034;-85
2021/08/01 01:43:08;;;;;;;9.43;3.80;;;;;;;12.69;75.33;100794.00;4879159;29;20096;-84
2021/08/01 01:45:35;;;;;;;6.57;3.40;;;;;;;12.49;75.46;100766.81;4905405;29;20028;-84
2021/08/01 01:48:01;;;;;;;9.75;4.10;;;;;;;12.64;75.65;100801.81;4898929;29;20514;-84
2021/08/01 01:50:26;;;;;;;8.90;3.72;;;;;;;12.66;75.29;100793.56;4891979;29;20033;-85
2021/08/01 01:52:52;;;;;;;7.25;3.30;;;;;;;12.76;75.22;100797.63;4897341;29;20032;-85
2021/08/01 01:55:19;;;;;;;7.93;3.13;;;;;;;12.89;75.09;100802.34;4886338;29;20516;-85
2021/08/01 01:57:45;;;;;;;8.60;3.83;;;;;;;12.83;74.32;100777.97;4876928;29;20629;-84
2021/08/01 02:00:11;;;;;;;7.40;3.33;;;;;;;12.91;74.49;100770.63;4898858;29;20025;-85
2021/08/01 02:02:37;;;;;;;11.23;3.38;;;;;;;13.06;74.57;100794.84;4882884;29;20020;-84
2021/08/01 02:05:04;;;;;;;6.97;4.18;;;;;;;13.13;74.69;100803.03;4892576;29;20059;-85
2021/08/01 02:07:32;;;;;;;6.25;3.10;;;;;;;13.12;74.94;100804.88;4897033;29;20513;-85
2021/08/01 02:10:16;;;;;;;11.77;3.53;;;;;;;13.13;75.44;100813.84;4888627;29;20047;-85
2021/08/01 02:12:48;;;;;;;7.40;2.58;;;;;;;13.15;74.99;100803.66;4910115;29;20108;-85
2021/08/01 02:15:18;;;;;;;7.57;3.33;;;;;;;13.15;74.80;100804.50;4874344;29;20084;-84
2021/08/01 02:18:02;;;;;;;7.32;3.22;;;;;;;13.17;74.72;100807.00;4894477;29;20994;-85
2021/08/01 02:20:40;;;;;;;8.32;3.30;;;;;;;13.24;74.21;100801.69;4911289;29;20060;-85
2021/08/01 02:23:08;;;;;;;11.05;3.72;;;;;;;13.30;74.81;100809.03;4897397;29;20028;-85
2021/08/01 02:25:35;;;;;;;7.43;3.30;;;;;;;13.18;75.33;100795.19;4890516;29;20079;-85
2021/08/01 02:28:03;;;;;;;6.10;3.30;;;;;;;13.20;74.93;100799.38;4882671;29;20083;-85
2021/08/01 02:30:30;;;;;;;9.82;3.00;;;;;;;13.17;75.20;100812.41;4891569;29;20033;-85
2021/08/01 02:32:55;;;;;;;7.10;3.42;;;;;;;13.11;76.10;100808.59;4896214;29;20036;-85
2021/08/01 02:35:21;;;;;;;7.20;3.17;;;;;;;13.15;75.92;100809.91;4896354;29;20585;-84
2021/08/01 02:37:46;;;;;;;5.95;3.03;;;;;;;13.17;74.72;100813.22;4882187;29;20037;-84
2021/08/01 02:40:13;;;;;;;8.15;3.00;;;;;;;13.20;75.05;100815.56;4898886;29;20044;-84
2021/08/01 02:42:40;;;;;;;5.60;3.10;;;;;;;13.17;75.34;100804.31;4891401;29;20138;-84
2021/08/01 02:45:06;;;;;;;6.90;3.30;;;;;;;13.10;74.85;100806.13;4896015;29;20028;-84
2021/08/01 02:47:32;;;;;;;5.93;3.08;;;;;;;13.04;74.75;100780.69;4895627;29;20037;-83
2021/08/01 02:49:58;;;;;;;8.48;2.90;;;;;;;13.10;75.58;100812.34;4890986;29;20579;-86
2021/08/01 02:52:29;;;;;;;6.35;3.17;;;;;;;13.10;75.54;100803.41;4882788;29;20045;-85
2021/08/01 02:54:56;;;;;;;6.00;2.90;;;;;;;13.14;75.55;100813.63;4874292;29;20031;-84
2021/08/01 02:57:23;;;;;;;5.95;2.45;;;;;;;13.05;75.48;100808.56;4876168;29;20036;-84
2021/08/01 02:59:49;;;;;;;7.75;2.80;;;;;;;13.06;75.85;100818.31;4893480;29;20071;-84
2021/08/01 03:02:14;;;;;;;6.65;3.40;;;;;;;12.94;76.20;100807.19;4883235;29;20606;-85
2021/08/01 03:04:40;;;;;;;5.70;2.30;;;;;;;12.85;76.10;100808.31;4889490;29;20048;-83
2021/08/01 03:07:15;;;;;;;5.65;2.55;;;;;;;12.82;76.43;100809.53;4899804;29;20024;-84
2021/08/01 03:09:41;;;;;;;3.50;2.00;;;;;;;12.84;76.64;100817.44;4894789;29;20028;-83
2021/08/01 03:12:14;;;;;;;6.25;2.50;;;;;;;12.89;76.54;100825.81;4899447;29;20080;-84
2021/08/01 03:14:40;;;;;;;5.97;2.45;;;;;;;12.95;76.39;100830.44;4890110;29;20478;-83
2021/08/01 03:17:06;;;;;;;9.25;2.60;;;;;;;12.98;76.09;100827.34;4874271;29;20040;-84
2021/08/01 03:19:37;;;;;;;8.85;4.15;;;;;;;13.01;75.70;100826.97;4871913;29;20029;-84
2021/08/01 03:22:03;;;;;;;6.30;2.90;;;;;;;13.06;75.76;100824.53;4892169;29;20024;-83
2021/08/01 03:24:28;;;;;;;6.93;3.00;;;;;;;13.12;76.08;100822.94;4865149;29;20041;-84
2021/08/01 03:26:54;;;;;;;5.90;2.60;;;;;;;13.01;76.03;100808.06;4889464;29;20032;-84
2021/08/01 03:29:19;;;;;;;5.15;2.60;;;;;;;13.06;76.74;100831.81;4896349;29;20024;-85
2021/08/01 03:31:45;;;;;;;8.23;2.80;;;;;;;13.07;76.70;100822.66;4878341;29;20032;-84
2021/08/01 03:34:10;;;;;;;4.03;2.47;;;;;;;13.10;76.65;100823.16;4881954;29;20028;-84
2021/08/01 03:36:36;;;;;;;8.45;2.60;;;;;;;13.18;75.85;100831.13;4892820;29;20087;-84
2021/08/01 03:39:02;;;;;;;3.95;2.33;;;;;;;13.10;76.75;100825.00;4893190;29;20500;-84
2021/08/01 03:41:29;;;;;;;7.30;2.50;;;;;;;13.08;76.13;100829.75;4889952;29;20020;-84
2021/08/01 03:43:54;;;;;;;4.07;2.45;;;;;;;13.05;76.05;100832.84;4874824;29;20493;-87
2021/08/01 03:46:20;;;;;;;4.75;2.13;;;;;;;12.95;76.02;100820.47;4892427;29;20032;-85
2021/08/01 03:48:45;;;;;;;4.85;2.30;;;;;;;12.93;76.24;100821.69;4874175;29;20032;-85
2021/08/01 03:51:10;;;;;;;3.75;2.00;;;;;;;12.92;76.32;100825.44;4891800;29;20028;-86
2021/08/01 03:53:36;;;;;;;4.10;2.10;;;;;;;12.89;76.02;100823.94;4892521;29;20051;-84
2021/08/01 03:56:03;;;;;;;4.68;1.90;;;;;;;12.83;75.99;100818.44;4902191;29;20032;-85
2021/08/01 03:58:29;;;;;;;3.63;1.95;;;;;;;12.95;75.96;100847.47;4876628;29;20379;-87
2021/08/01 04:00:54;;;;;;;8.75;2.15;;;;;;;12.94;76.29;100845.81;4900596;29;20028;-85
2021/08/01 04:03:19;;;;;;;5.13;2.30;;;;;;;12.93;76.36;100854.91;4891874;29;20043;-84
2021/08/01 04:05:45;;;;;;;3.40;2.00;;;;;;;12.67;75.90;100804.13;4893693;29;20048;-84
2021/08/01 04:08:10;;;;;;;5.53;2.30;;;;;;;12.92;76.15;100850.53;4878420;29;20033;-84
2021/08/01 04:10:36;;;;;;;4.75;1.88;;;;;;;12.94;75.96;100853.06;4874499;29;20040;-84
2021/08/01 04:13:01;;;;;;;5.75;2.22;;;;;;;12.87;75.46;100852.97;4897188;29;20033;-84
2021/08/01 04:15:27;;;;;;;5.90;2.00;;;;;;;12.91;75.09;100862.38;4893204;29;20112;-84
2021/08/01 04:17:52;;;;;;;3.70;1.90;;;;;;;12.91;75.05;100865.06;4891502;29;20085;-86
2021/08/01 04:20:18;;;;;;;3.72;1.90;;;;;;;12.87;74.81;100858.38;4879820;29;20108;-84
2021/08/01 04:22:43;;;;;;;3.13;1.90;;;;;;;12.89;74.46;100863.59;4873928;29;20027;-85
2021/08/01 04:25:09;;;;;;;6.32;2.65;;;;;;;12.91;74.85;100867.78;4892016;29;20032;-85
2021/08/01 04:27:35;;;;;;;4.07;2.05;;;;;;;12.87;74.98;100874.56;4896408;29;20080;-85
2021/08/01 04:30:00;;;;;;;5.68;2.15;;;;;;;12.87;75.09;100877.25;4897525;29;20044;-84
2021/08/01 04:32:26;;;;;;;5.55;2.53;;;;;;;12.74;74.99;100867.13;4880079;29;20123;-83
2021/08/01 04:34:51;;;;;;;7.80;2.55;;;;;;;12.83;74.79;100878.66;4897165;29;20028;-85
2021/08/01 04:37:17;;;;;;;4.93;2.10;;;;;;;12.82;75.08;100876.97;4893785;29;20033;-86
2021/08/01 04:39:42;;;;;;;4.13;2.25;;;;;;;12.83;74.82;100877.81;4892017;29;20029;-85
2021/08/01 04:42:08;;;;;;;5.13;2.20;;;;;;;12.83;74.63;100867.84;4896483;29;20502;-84
2021/08/01 04:44:33;;;;;;;5.40;2.10;;;;;;;12.80;75.19;100859.31;4896271;29;20048;-84
2021/08/01 04:46:59;;;;;;;4.93;2.05;;;;;;;12.72;74.74;100858.38;4898942;29;20043;-84
2021/08/01 04:49:24;;;;;;;4.70;2.58;;;;;;;12.83;74.78;100870.56;4896655;29;20379;-85
2021/08/01 04:51:49;;;;;;;5.10;2.38;;;;;;;12.77;74.89;100861.34;4898345;29;20788;-85
2021/08/01 04:54:15;;;;;;;7.28;2.17;;;;;;;12.83;74.61;100885.91;4883023;29;20029;-85
2021/08/01 04:56:45;;;;;;;4.45;2.28;;;;;;;12.86;74.22;100878.28;4900116;29;20033;-85
2021/08/01 04:59:11;;;;;;;8.60;2.85;;;;;;;12.87;74.68;100879.97;4901061;29;20035;-85
2021/08/01 05:01:36;;;;;;;4.68;2.10;;;;;;;12.86;74.00;100877.44;4874867;29;20456;-84
2021/08/01 05:04:02;;;;;;;4.78;2.53;;;;;;;12.86;73.92;100890.94;4895268;29;20121;-85
2021/08/01 05:06:27;;;;;;;5.07;2.53;;;;;;;12.71;74.04;100872.06;4893815;29;20040;-85
2021/08/01 05:08:53;;;;;;;6.05;2.25;;;;;;;12.81;74.41;100885.25;4900300;29;20068;-86
2021/08/01 05:11:18;;;;;;;6.57;2.35;;;;;;;12.85;74.36;100894.66;4878476;29;20120;-85
2021/08/01 05:13:43;;;;;;;6.47;2.20;;;;;;;12.87;74.03;100895.31;4889298;29;20112;-85
2021/08/01 05:16:15;;;;;;;9.38;2.33;;;;;;;12.77;73.73;100871.31;4898415;29;20400;-85
2021/08/01 05:18:41;;;;;;;6.00;2.40;;;;;;;12.90;73.42;100892.25;4897701;29;20036;-84
2021/08/01 05:21:06;;;;;;;7.55;2.88;;;;;;;12.91;73.67;100894.75;4883021;29;20024;-84
2021/08/01 05:23:31;;;;;;;6.13;2.42;;;;;;;12.94;73.44;100894.38;4894058;29;20029;-85
2021/08/01 05:25:57;;;;;;;4.53;2.40;;;;;;;12.87;73.86;100882.66;4902982;29;20033;-86
2021/08/01 05:28:23;;;;;;;5.55;2.47;;;;;;;12.94;74.65;100891.69;4902353;29;20727;-85
2021/08/01 05:30:48;;;;;;;6.80;2.75;;;;;;;12.94;74.88;100904.34;4897907;29;20043;-85
2021/08/01 05:33:14;;;;;;;5.57;2.67;;;;;;;12.93;75.01;100897.25;4903889;29;20650;-84
2021/08/01 05:35:39;;;;;;;6.03;2.50;;;;;;;12.95;74.07;100895.22;4901185;29;20040;-84
2021/08/01 05:38:05;;;;;;;8.38;2.58;;;;;;;13.00;73.87;100902.75;4900958;29;20037;-85
2021/08/01 05:40:31;;;;;;;4.55;2.30;;;;;;;12.97;73.81;100898.56;4900486;29;20020;-84
2021/08/01 05:42:59;;;;;;;12.45;2.58;;;;;;;12.93;74.18;100903.47;4902710;29;20039;-85
2021/08/01 05:45:24;;;;;;;5.65;2.38;;;;;;;12.90;74.10;100897.63;4904114;29;20031;-85
2021/08/01 05:47:50;;;;;;;6.75;2.55;;;;;;;12.96;73.94;100907.66;4898430;29;20040;-85
2021/08/01 05:50:15;;;;;;;5.22;3.25;;;;;;;12.91;73.86;100905.56;4901238;29;20385;-85
2021/08/01 05:52:41;;;;;;;5.20;2.30;;;;;;;12.91;74.20;100904.69;4900917;29;20029;-85
2021/08/01 05:55:07;;;;;;;4.35;2.30;;;;;;;12.91;74.27;100900.16;4887159;29;20028;-83
2021/08/01 05:57:32;;;;;;;5.05;2.25;;;;;;;12.99;74.55;100901.88;4898695;29;20111;-85
2021/08/01 05:59:57;;;;;;;8.35;2.63;;;;;;;12.85;74.67;100882.00;4895395;29;20028;-83
2021/08/01 06:02:23;;;;;;;8.15;2.60;;;;;;;12.93;74.91;100899.97;4893294;29;20045;-83
2021/08/01 06:04:49;;;;;;;8.38;2.88;;;;;;;12.96;75.21;100904.97;4899794;29;20548;-84
2021/08/01 06:07:15;;;;;;;5.20;2.67;;;;;;;12.94;75.02;100898.94;4903837;29;20024;-84
2021/08/01 06:09:43;;;;;;;6.80;2.40;;;;;;;12.95;74.83;100908.72;4897947;29;20084;-83
2021/08/01 06:12:10;;;;;;;6.20;2.60;;;;;;;12.97;74.86;100914.75;4901234;29;20028;-84
2021/08/01 06:14:36;;;;;;;6.20;2.33;;;;;;;12.82;75.25;100892.34;4896661;29;20031;-82
2021/08/01 06:17:02;;;;;;;8.13;2.75;;;;;;;12.97;75.41;100917.47;4892689;29;20280;-85
2021/08/01 06:19:27;;;;;;;5.28;2.80;;;;;;;12.99;75.04;100918.09;4882721;29;21836;-85
2021/08/01 06:21:53;;;;;;;5.90;2.65;;;;;;;13.02;75.08;100915.03;4900234;29;20029;-83
2021/08/01 06:24:18;;;;;;;8.52;2.60;;;;;;;12.99;74.95;100912.69;4880951;29;20139;-85
2021/08/01 06:26:44;;;;;;;6.28;2.08;;;;;;;13.02;75.12;100923.13;4887363;29;20389;-85
2021/08/01 06:29:10;;;;;;;6.40;2.60;;;;;;;13.04;74.85;100931.03;4889212;29;20028;-84
2021/08/01 06:31:35;;;;;;;6.38;2.67;;;;;;;13.02;74.95;100923.13;4897620;29;20033;-85
2021/08/01 06:34:01;;;;;;;6.15;2.63;;;;;;;13.04;75.07;100931.84;4892807;29;20039;-85
2021/08/01 06:36:26;;;;;;;4.38;2.00;;;;;;;13.11;74.68;100938.19;4894200;29;20024;-85
2021/08/01 06:38:52;;;;;;;7.38;2.38;;;;;;;13.08;74.97;100933.19;4897753;29;20047;-85
2021/08/01 06:41:17;;;;;;;4.88;2.45;;;;;;;13.02;75.27;100925.84;4901957;29;20393;-85
2021/08/01 06:43:42;;;;;;;6.68;2.40;;;;;;;13.08;75.15;100935.03;4907617;29;20571;-84
2021/08/01 06:46:08;;;;;;;5.55;2.70;;;;;;;13.07;75.32;100930.66;4880132;29;20033;-85
2021/08/01 06:48:33;;;;;;;6.10;2.80;;;;;;;13.12;75.12;100928.22;4885330;29;20024;-85
2021/08/01 06:50:59;;;;;;;6.38;2.83;;;;;;;13.11;75.11;100922.00;4901276;29;20028;-84
2021/08/01 06:53:27;;;;;;;6.57;2.97;;;;;;;13.15;74.63;100928.69;4896778;29;20393;-84
2021/08/01 06:55:52;;;;;;;6.88;2.45;;;;;;;13.19;75.26;100937.25;4892183;29;20062;-83
2021/08/01 06:58:19;;;;;;;5.82;2.90;;;;;;;13.18;74.91;100938.28;4891881;29;20510;-85
2021/08/01 07:00:49;;;;;;;5.18;2.30;;;;;;;13.23;74.64;100926.91;4878104;29;20032;-84
2021/08/01 07:03:14;;;;;;;5.50;2.63;;;;;;;13.25;74.53;100928.38;4878848;29;20039;-84
2021/08/01 07:05:40;;;;;;;3.92;2.17;;;;;;;13.32;74.77;100934.75;4901285;29;20032;-84
2021/08/01 07:08:05;;;;;;;7.95;2.60;;;;;;;13.37;74.08;100934.19;4899710;29;20033;-85
2021/08/01 07:10:31;;;;;;;5.00;2.47;;;;;;;13.36;74.18;100929.78;4879088;29;20037;-84
2021/08/01 07:13:04;;;;;;;4.78;2.38;;;;;;;13.47;74.13;100931.16;4893493;29;20040;-85
2021/08/01 07:15:29;;;;;;;7.85;2.20;;;;;;;13.53;73.46;100936.66;4877711;29;20636;-85
2021/08/01 07:17:56;;;;;;;6.35;2.38;;;;;;;13.63;73.06;100945.28;4895763;29;20048;-84
2021/08/01 07:20:22;;;;;;;5.18;2.00;;;;;;;13.67;72.81;100947.59;4898332;29;20036;-85
2021/08/01 07:22:47;;;;;;;4.50;2.17;;;;;;;13.68;72.28;100935.75;4883804;29;20054;-85
2021/08/01 07:25:13;;;;;;;6.47;2.60;;;;;;;13.70;71.86;100931.84;4895934;29;20056;-84
2021/08/01 07:27:38;;;;;;;5.85;2.40;;;;;;;13.81;71.69;100939.44;4896062;29;20028;-84
2021/08/01 07:30:04;;;;;;;8.32;3.72;;;;;;;13.90;71.40;100939.31;4901166;29;20110;-84
2021/08/01 07:32:30;;;;;;;5.38;2.20;;;;;;;13.91;71.64;100938.28;4881683;29;20025;-83
2021/08/01 07:34:56;;;;;;;5.50;2.58;;;;;;;13.87;71.91;100945.94;4893261;29;20051;-84
2021/08/01 07:37:21;;;;;;;6.35;2.33;;;;;;;13.93;71.81;100964.09;4892867;29;20032;-83
2021/08/01 07:39:49;;;;;;;5.72;2.28;;;;;;;13.89;71.59;100956.56;4884143;29;20545;-84
2021/08/01 07:42:15;;;;;;;6.22;2.45;;;;;;;13.87;71.54;100970.28;4894533;29;20035;-84
2021/08/01 07:45:22;;;;;;;3.75;2.03;;;;;;;13.89;71.94;100964.66;4893619;29;20036;-83
2021/08/01 07:47:35;;;;;;;6.35;2.40;;;;;;;13.85;71.93;100958.81;4888427;29;20055;-79
2021/08/01 07:50:02;;;;;;;13.23;2.75;;;;;;;13.89;72.11;100970.06;4894322;29;20040;-78
2021/08/01 07:52:28;;;;;;;4.40;1.95;;;;;;;13.79;72.04;100962.28;4897738;29;20102;-79
2021/08/01 07:54:53;;;;;;;6.25;2.15;;;;;;;13.77;72.02;100964.34;4894869;29;20144;-78
2021/08/01 07:57:25;;;;;;;7.82;2.60;;;;;;;13.83;72.40;100979.78;4888759;29;20462;-78
2021/08/01 07:59:51;;;;;;;6.22;2.47;;;;;;;13.82;72.41;100978.13;4888871;29;20035;-78
2021/08/01 08:02:16;;;;;;;11.35;3.00;;;;;;;13.91;72.36;100982.38;4893601;29;20028;-78
2021/08/01 08:04:42;;;;;;;8.18;2.90;;;;;;;13.97;71.93;100997.84;4889796;29;20040;-78
2021/08/01 08:07:07;;;;;;;5.40;2.67;;;;;;;13.96;71.82;100989.91;4895729;29;20382;-78
2021/08/01 08:09:33;;;;;;;4.95;1.92;;;;;;;13.97;72.27;100995.13;4895298;29;20515;-79
2021/08/01 08:11:58;;;;;;;5.80;2.40;;;;;;;13.93;72.29;101001.09;4901404;29;20049;-78
2021/08/01 08:14:24;;;;;;;5.88;2.50;;;;;;;13.91;72.88;100995.88;4898063;29;20032;-78
2021/08/01 08:16:49;;;;;;;12.77;2.40;;;;;;;13.89;72.84;100986.28;4890754;29;20036;-77
2021/08/01 08:19:14;;;;;;;8.40;2.47;;;;;;;13.91;72.71;100990.47;4891204;29;20032;-78
2021/08/01 08:21:40;;;;;;;5.05;2.38;;;;;;;13.98;72.56;100998.66;4893270;29;20036;-77
2021/08/01 08:24:05;;;;;;;5.70;2.47;;;;;;;14.04;73.06;100998.72;4890125;29;20147;-78
2021/08/01 08:26:31;;;;;;;9.73;2.42;;;;;;;14.08;73.12;100993.78;4893073;29;20080;-78
2021/08/01 08:28:57;;;;;;;5.05;2.10;;;;;;;14.28;73.20;101000.19;4874825;29;20031;-78
2021/08/01 08:31:22;;;;;;;4.65;2.33;;;;;;;14.36;72.90;100991.09;4909135;29;20034;-78
2021/08/01 08:33:48;;;;;;;5.05;2.20;;;;;;;14.52;72.96;100990.00;4896211;29;20626;-78
2021/08/01 08:36:13;;;;;;;7.47;2.42;;;;;;;14.66;73.10;100999.94;4877391;29;20041;-78
2021/08/01 08:38:38;;;;;;;6.63;2.78;;;;;;;14.78;72.68;101000.22;4892462;29;20036;-77
2021/08/01 08:41:04;;;;;;;5.47;2.22;;;;;;;14.89;72.25;101002.34;4891698;29;20096;-78
2021/08/01 08:43:29;;;;;;;7.07;2.85;;;;;;;14.86;71.79;101001.94;4896085;29;20032;-78
2021/08/01 08:45:57;;;;;;;9.48;2.45;;;;;;;14.81;71.72;101004.38;4892850;29;20044;-78
2021/08/01 08:48:22;;;;;;;7.50;2.58;;;;;;;14.69;71.46;100993.28;4892901;29;20036;-78
2021/08/01 08:50:49;;;;;;;3.80;2.42;;;;;;;14.67;72.31;100998.06;4891982;29;20035;-77
2021/08/01 08:53:19;;;;;;;6.07;2.15;;;;;;;14.60;72.01;100999.88;4892144;29;20545;-78
2021/08/01 08:55:44;;;;;;;5.30;2.33;;;;;;;14.63;72.71;100999.47;4888250;29;20041;-77
2021/08/01 08:58:10;;;;;;;5.97;2.47;;;;;;;14.61;73.29;100996.16;4898702;29;20051;-77
2021/08/01 09:00:36;;;;;;;4.63;2.47;;;;;;;14.64;73.01;100993.03;4893192;29;20193;-77
2021/08/01 09:03:01;;;;;;;6.05;2.53;;;;;;;14.75;72.75;100995.19;4897059;29;20533;-77
2021/08/01 09:05:27;;;;;;;7.40;2.40;;;;;;;14.80;72.91;100998.16;4909556;29;20037;-76
2021/08/01 09:07:53;;;;;;;6.18;2.42;;;;;;;14.97;73.02;100997.84;4876945;29;20040;-77
2021/08/01 09:10:18;;;;;;;11.50;3.58;;;;;;;15.05;72.71;101001.22;4892804;29;20039;-77
2021/08/01 09:12:50;;;;;;;3.85;2.20;;;;;;;15.06;72.27;101004.78;4896924;29;20064;-77
2021/08/01 09:15:19;;;;;;;10.57;2.60;;;;;;;15.07;71.88;101001.84;4897936;29;20032;-77
2021/08/01 09:17:45;;;;;;;8.27;2.30;;;;;;;14.95;71.40;101004.28;4899806;29;20035;-77
2021/08/01 09:20:31;;;;;;;8.00;2.53;;;;;;;14.83;71.33;101003.16;4890878;29;20547;-76
2021/08/01 09:23:02;;;;;;;4.25;2.00;;;;;;;14.73;71.12;101002.66;4889136;29;20052;-77
2021/08/01 09:25:30;;;;;;;5.15;2.10;;;;;;;14.67;71.22;100989.94;4892598;29;20028;-77
2021/08/01 09:28:09;;;;;;;9.43;2.33;;;;;;;14.70;71.20;101003.91;4892598;29;20970;-77
2021/08/01 09:30:46;;;;;;;4.22;1.88;;;;;;;14.78;70.87;101010.22;4892542;29;20762;-77
2021/08/01 09:33:12;;;;;;;4.20;1.88;;;;;;;14.80;70.78;101008.97;4893715;29;20032;-83
2021/08/01 09:35:39;;;;;;;4.13;1.67;;;;;;;14.77;71.23;101003.97;4901153;29;20040;-82
2021/08/01 09:38:04;;;;;;;5.47;1.77;;;;;;;14.66;71.21;101009.91;4899602;29;20396;-82
2021/08/01 09:40:34;;;;;;;6.57;1.75;;;;;;;14.60;72.38;101024.22;4877844;29;20025;-82
2021/08/01 09:43:13;;;;;;;7.18;2.38;;;;;;;14.57;73.38;101019.19;4901167;29;20128;-82
2021/08/01 09:45:39;;;;;;;3.35;1.55;;;;;;;14.50;72.97;101025.38;4895955;29;20024;-82
2021/08/01 09:48:15;;;;;;;5.45;1.80;;;;;;;14.46;73.25;101028.66;4904318;29;20028;-82
2021/08/01 09:50:58;;;;;;;4.10;2.22;;;;;;;14.46;73.41;101025.94;4891225;29;20164;-82
2021/08/01 09:53:24;;;;;;;4.30;1.88;;;;;;;14.44;73.28;101018.03;4905991;29;20036;-82
2021/08/01 09:56:14;;;;;;;7.18;1.98;;;;;;;14.72;73.01;101028.91;4899161;29;20029;-82
2021/08/01 09:58:40;;;;;;;3.90;1.70;;;;;;;14.98;72.01;101030.13;4897924;29;20029;-82
2021/08/01 10:01:06;;;;;;;3.63;1.40;;;;;;;15.28;71.66;101036.16;4882365;29;20025;-82
2021/08/01 10:03:42;;;;;;;3.80;1.52;;;;;;;15.49;71.35;101037.91;4893682;29;20031;-83
2021/08/01 10:06:19;;;;;;;6.50;2.72;;;;;;;15.57;69.79;101036.91;4895062;29;20044;-83
2021/08/01 10:08:49;;;;;;;3.35;1.40;;;;;;;15.41;70.16;101002.03;4899539;29;20021;-82
2021/08/01 10:11:17;;;;;;;4.97;1.33;;;;;;;15.77;70.51;101046.00;4904517;29;20036;-83
2021/08/01 10:13:44;;;;;;;3.13;1.15;;;;;;;16.25;71.29;101050.50;4887225;29;20020;-82
2021/08/01 10:16:10;;;;;;;2.78;1.50;;;;;;;16.33;70.47;101057.63;4904881;29;20024;-83
2021/08/01 10:18:37;;;;;;;3.80;0.98;;;;;;;16.34;68.87;101051.97;4899974;29;20594;-82
2021/08/01 10:21:04;;;;;;;2.65;1.27;;;;;;;16.26;68.39;101061.16;4906212;29;20025;-82
2021/08/01 10:23:34;;;;;;;1.83;0.90;;;;;;;16.21;67.47;101043.81;4886718;29;20033;-82
2021/08/01 10:26:01;;;;;;;1.70;1.02;;;;;;;16.48;66.36;101047.38;4904350;29;20029;-83
2021/08/01 10:28:27;;;;;;;2.00;1.52;;;;;;;16.63;66.15;101042.59;4889459;29;20097;-83
2021/08/01 10:30:54;;;;;;;1.90;0.88;;;;;;;16.93;65.63;101036.75;4909829;29;20051;-82
2021/08/01 10:33:22;;;;;;;1.60;0.88;;;;;;;17.12;64.33;101046.78;4895988;29;20080;-82
2021/08/01 10:36:00;;;;;;;2.58;1.35;;;;;;;17.22;62.35;101032.72;4894287;29;20514;-83
2021/08/01 10:38:29;;;;;;;2.10;0.80;;;;;;;17.17;61.42;101037.13;4900638;29;20032;-81
2021/08/01 10:40:57;;;;;;;2.90;1.00;;;;;;;17.06;62.31;101042.16;4901502;29;20035;-83
2021/08/01 10:43:27;;;;;;;2.63;1.10;;;;;;;17.05;62.73;101042.41;4885854;29;20047;-84
2021/08/01 10:45:52;;;;;;;2.60;1.20;;;;;;;16.86;63.62;101036.78;4901296;29;20401;-81
2021/08/01 10:48:23;;;;;;;3.00;1.20;;;;;;;16.78;64.19;101041.59;4889142;29;20589;-81
2021/08/01 10:50:49;;;;;;;4.00;1.35;;;;;;;16.76;64.03;101049.09;4885055;29;20052;-83
2021/08/01 10:53:21;;;;;;;4.05;2.25;;;;;;;16.76;64.52;101047.19;4902729;29;20051;-83
2021/08/01 10:55:47;;;;;;;3.53;1.48;;;;;;;16.74;64.53;101045.72;4891190;29;20343;-83
2021/08/01 10:58:14;;;;;;;2.83;1.20;;;;;;;16.67;64.20;101043.88;4876140;29;20028;-83
2021/08/01 11:00:55;;;;;;;4.32;1.55;;;;;;;16.61;64.18;101038.41;4896693;29;20100;-82
2021/08/01 11:03:21;;;;;;;2.88;1.50;;;;;;;16.52;63.36;101045.94;4891261;29;20386;-82
2021/08/01 11:05:47;;;;;;;3.88;1.40;;;;;;;16.43;62.75;101052.59;4900337;29;20020;-83
2021/08/01 11:08:13;;;;;;;4.10;1.70;;;;;;;16.33;62.31;101046.78;4885445;29;20168;-83
2021/08/01 11:10:39;;;;;;;2.30;1.23;;;;;;;16.24;62.27;101033.38;4908178;29;20484;-82
2021/08/01 11:13:28;;;;;;;2.97;1.30;;;;;;;16.24;62.09;101044.22;4888485;29;20071;-82
2021/08/01 11:15:54;;;;;;;3.65;1.50;;;;;;;16.26;62.84;101047.56;4904024;29;20052;-82
2021/08/01 11:18:55;;;;;;;2.55;1.38;;;;;;;16.16;62.21;101040.88;4900311;29;20091;-82
2021/08/01 11:21:37;;;;;;;2.40;1.38;;;;;;;16.23;63.08;101049.88;4843643;29;20534;-82
2021/08/01 11:24:09;;;;;;;3.90;1.30;;;;;;;16.24;64.09;101046.09;4893462;29;20051;-82
2021/08/01 11:26:36;;;;;;;4.32;2.15;;;;;;;16.34;64.49;101059.28;4896005;29;20502;-80